This demonstration page uses our WeatherBlox Daily Observations layout. Learn more.

36.17497, -115.13722

Hourly Observations for September 2, 2018

Temp ( °F °C ) Dew Point ( °F °C ) Humidity (%) Winds ( mph kmh ) Pressure ( in mb ) Visibility ( mi km ) Precip ( " mm )
12:53 am 00:53 Clear 81 27.2 32 0 17 17 NW 6 9 29.71 1006 10 16.09344 0 0
1:53 am 01:53 Clear 80 26.7 35 1.7 20 20 N 8 13 29.71 1006 10 16.09344 0 0
2:53 am 02:53 Clear 78 25.6 35 1.7 21 21 N 7 11 29.74 1007 10 16.09344 0 0
3:53 am 03:53 Clear 76 24.4 34 1.1 22 22 N 5 7 29.74 1007 10 16.09344 0 0
4:53 am 04:53 Clear 76 24.4 34 1.1 22 22 NW 5 7 29.77 1008 10 16.09344 0 0
5:53 am 05:53 Clear 74 23.3 38 3.3 27 27 NNW 3 6 29.77 1008 10 16.09344 0 0
6:53 am 06:53 Sunny 75 23.9 41 5 29 29 NW 3 6 29.8 1009 10 16.09344 0 0
7:53 am 07:53 Sunny 80 26.7 41 5 25 25 Calm 29.83 1010 10 16.09344 0 0
8:53 am 08:53 Sunny 85 29.4 36 2.2 17 17 Calm 29.83 1010 10 16.09344 0 0
9:53 am 09:53 Sunny 88 31.1 36 2.2 16 16 SE 6 9 29.83 1010 10 16.09344 0 0
10:53 am 10:53 Sunny 89 31.7 36 2.2 15 15 SSE 6 9 29.85 1011 10 16.09344 0 0
11:53 am 11:53 Sunny 93 33.9 35 1.7 13 13 ESE 6 9 29.83 1010 10 16.09344 0 0
12:53 pm 12:53 Sunny 95 35 37 2.8 13 13 N 3 6 29.83 1010 10 16.09344 0 0
1:53 pm 13:53 Sunny 96 35.6 37 2.8 13 13 SSW 5 7 29.8 1009 10 16.09344 0 0
2:53 pm 14:53 Sunny 97 36.1 43 6.1 16 16 SE 8 13 29.77 1008 10 16.09344 0 0
3:53 pm 15:53 Sunny 98 36.7 42 5.6 15 15 SSE 14 22 29.77 1008 10 16.09344 0 0
4:53 pm 16:53 Mostly Sunny 97 36.1 43 6.1 16 16 S 3 6 29.74 1007 10 16.09344 0 0
5:53 pm 17:53 Sunny 97 36.1 41 5 14 14 S 10 17 29.74 1007 10 16.09344 0 0
6:53 pm 18:53 Sunny 95 35 40 4.4 15 15 SSE 9 15 29.74 1007 10 16.09344 0 0
7:53 pm 19:53 Clear 93 33.9 40 4.4 16 16 SSE 9 15 29.77 1008 10 16.09344 0 0
8:53 pm 20:53 Clear 92 33.3 39 3.9 16 16 S 7 11 29.77 1008 10 16.09344 0 0
9:53 pm 21:53 Clear 90 32.2 38 3.3 16 16 SW 6 9 29.8 1009 10 16.09344 0 0
10:53 pm 22:53 Clear 88 31.1 41 5 19 19 WSW 5 7 29.8 1009 10 16.09344 0 0
11:53 pm 23:53 Clear 86 30 43 6.1 22 22 SSE 6 9 29.8 1009 10 16.09344 0 0

Powered by AerisWeather